Time;durP1;ratioP1;P1;durP2;ratioP2;P2;SDS_P1;SDS_P2;PMS_P1;PMS_P2;Temp;Humidity;BMP_temperature;BMP_pressure;BME280_temperature;BME280_humidity;BME280_pressure;Samples;Min_cycle;Max_cycle;Signal;HPM_P1;HPM_P2
2021/03/07 00:00:18;;;;;;;3.86;2.00;;;;;;;-0.36;56.38;100302.63;2031481;79;20330;-71
2021/03/07 00:03:19;;;;;;;2.85;2.03;;;;;;;-0.36;55.75;100282.19;2031894;79;20317;-71
2021/03/07 00:06:21;;;;;;;1.92;1.77;;;;;;;-0.36;55.61;100288.22;2032609;79;20306;-71
2021/03/07 00:09:23;;;;;;;2.46;1.99;;;;;;;-0.38;55.49;100279.56;2031923;79;20314;-71
2021/03/07 00:12:24;;;;;;;3.11;2.78;;;;;;;-0.43;55.63;100288.66;2032083;79;20334;-71
2021/03/07 00:15:26;;;;;;;3.17;1.79;;;;;;;-0.49;56.02;100284.91;2031207;76;20309;-71
2021/03/07 00:18:28;;;;;;;1.70;1.58;;;;;;;-0.55;56.34;100282.03;2032948;79;20334;-71
2021/03/07 00:21:30;;;;;;;2.67;1.79;;;;;;;-0.55;55.76;100275.25;2032250;79;20346;-71
2021/03/07 00:24:32;;;;;;;2.55;1.77;;;;;;;-0.58;56.21;100272.53;2031991;79;20751;-71
2021/03/07 00:27:34;;;;;;;1.86;1.56;;;;;;;-0.66;57.64;100271.25;2031191;79;20330;-71
2021/03/07 00:30:36;;;;;;;2.74;1.92;;;;;;;-0.73;57.59;100276.78;2031426;77;20331;-71
2021/03/07 00:33:38;;;;;;;2.50;1.66;;;;;;;-0.75;57.45;100281.81;2077642;69;20312;-70
2021/03/07 00:36:39;;;;;;;2.30;1.71;;;;;;;-0.76;56.51;100280.06;2027225;79;20363;-70
2021/03/07 00:39:41;;;;;;;1.94;1.60;;;;;;;-0.74;56.41;100273.38;2026609;79;20354;-70
2021/03/07 00:42:44;;;;;;;2.45;1.74;;;;;;;-0.69;55.80;100279.63;2027171;79;20340;-69
2021/03/07 00:45:46;;;;;;;2.28;1.60;;;;;;;-0.68;55.89;100272.84;2025173;77;20357;-70
2021/03/07 00:48:48;;;;;;;2.05;1.79;;;;;;;-0.76;56.64;100269.00;2025251;80;20340;-69
2021/03/07 00:51:50;;;;;;;2.81;1.74;;;;;;;-0.74;56.27;100273.38;2021733;80;20454;-70
2021/03/07 00:54:52;;;;;;;5.13;2.66;;;;;;;-0.72;55.94;100270.91;2021744;80;20350;-69
2021/03/07 00:57:54;;;;;;;3.47;1.98;;;;;;;-0.72;56.21;100276.00;2021828;80;20344;-69
2021/03/07 01:00:55;;;;;;;6.26;2.28;;;;;;;-0.64;55.91;100275.63;2021131;78;22128;-70
2021/03/07 01:03:57;;;;;;;5.47;2.88;;;;;;;-0.65;55.77;100267.91;2026901;79;20311;-70
2021/03/07 01:06:59;;;;;;;11.10;3.06;;;;;;;-0.67;56.07;100266.97;2026662;79;20311;-70
2021/03/07 01:10:01;;;;;;;5.15;3.06;;;;;;;-0.69;56.53;100263.44;2026935;79;20376;-69
2021/03/07 01:13:05;;;;;;;4.38;3.04;;;;;;;-0.67;56.55;100259.31;2026687;79;21065;-70
2021/03/07 01:16:07;;;;;;;5.54;2.69;;;;;;;-0.69;57.30;100255.78;2023826;77;22166;-70
2021/03/07 01:19:09;;;;;;;8.99;2.94;;;;;;;-0.80;59.40;100251.78;2024278;79;20332;-70
2021/03/07 01:22:10;;;;;;;5.40;2.83;;;;;;;-0.92;60.46;100247.75;2024556;79;20344;-69
2021/03/07 01:25:12;;;;;;;6.93;2.69;;;;;;;-1.05;60.71;100241.94;2024878;79;20335;-69
2021/03/07 01:28:14;;;;;;;5.74;2.49;;;;;;;-1.19;61.28;100242.81;2024185;79;20342;-70
2021/03/07 01:31:16;;;;;;;7.17;2.91;;;;;;;-1.29;62.04;100237.19;2023500;79;20299;-70
2021/03/07 01:34:18;;;;;;;5.66;2.80;;;;;;;-1.44;62.42;100236.31;2024227;79;20186;-70
2021/03/07 01:37:20;;;;;;;5.11;2.66;;;;;;;-1.53;62.73;100233.28;2024658;79;20310;-70
2021/03/07 01:40:25;;;;;;;10.30;3.04;;;;;;;-1.63;63.36;100218.25;2024583;79;20213;-69
2021/03/07 01:43:27;;;;;;;6.91;2.61;;;;;;;-1.68;63.83;100223.09;2024189;79;20220;-70
2021/03/07 01:46:29;;;;;;;4.73;2.46;;;;;;;-1.77;64.82;100221.72;2023692;77;20340;-70
2021/03/07 01:49:31;;;;;;;3.47;2.64;;;;;;;-1.89;64.84;100211.69;2023994;79;20343;-70
2021/03/07 01:52:35;;;;;;;3.99;2.72;;;;;;;-1.94;65.40;100215.63;2024546;79;20162;-70
2021/03/07 01:55:38;;;;;;;5.11;2.48;;;;;;;-1.99;65.49;100207.72;2023543;79;20203;-70
2021/03/07 01:58:41;;;;;;;4.54;2.89;;;;;;;-2.09;65.85;100200.34;2024221;79;20294;-70
2021/03/07 02:01:43;;;;;;;3.52;2.26;;;;;;;-2.15;65.95;100208.50;2023212;77;20800;-70
2021/03/07 02:04:45;;;;;;;2.66;2.22;;;;;;;-2.17;65.87;100199.00;2024349;79;20301;-70
2021/03/07 02:07:48;;;;;;;2.97;2.51;;;;;;;-2.22;65.96;100192.78;2024047;79;20351;-70
2021/03/07 02:10:55;;;;;;;4.16;2.73;;;;;;;-2.31;66.09;100198.22;2023763;80;20174;-70
2021/03/07 02:13:57;;;;;;;3.21;2.39;;;;;;;-2.34;66.15;100175.13;2023872;79;20163;-70
2021/03/07 02:16:59;;;;;;;4.51;2.51;;;;;;;-2.39;66.27;100168.91;2023159;77;20857;-70
2021/03/07 02:20:03;;;;;;;3.06;2.58;;;;;;;-2.45;66.63;100168.53;2024275;80;20255;-70
2021/03/07 02:23:09;;;;;;;4.39;2.14;;;;;;;-2.48;66.96;100165.81;2023986;79;20167;-70
2021/03/07 02:26:10;;;;;;;2.61;2.37;;;;;;;-2.51;67.04;100168.19;2024217;80;20205;-70
2021/03/07 02:29:14;;;;;;;5.90;2.92;;;;;;;-2.55;67.20;100161.13;2024776;79;20246;-70
2021/03/07 02:32:22;;;;;;;4.34;2.62;;;;;;;-2.64;67.72;100163.16;2023115;77;20893;-70
2021/03/07 02:35:26;;;;;;;5.52;2.76;;;;;;;-2.81;67.94;100162.13;2023870;79;20284;-70
2021/03/07 02:38:32;;;;;;;3.99;2.36;;;;;;;-2.84;68.04;100155.19;2024231;80;20162;-70
2021/03/07 02:41:35;;;;;;;3.97;2.46;;;;;;;-2.86;68.03;100148.28;2024304;80;20178;-70
2021/03/07 02:44:39;;;;;;;4.41;2.46;;;;;;;-2.86;68.09;100144.06;2023650;79;20174;-70
2021/03/07 02:47:47;;;;;;;4.39;2.29;;;;;;;-2.87;68.14;100143.94;2023304;77;20194;-69
2021/03/07 02:50:50;;;;;;;2.78;2.40;;;;;;;-2.93;68.36;100144.47;2024216;79;20620;-70
2021/03/07 02:53:58;;;;;;;2.61;2.22;;;;;;;-3.02;68.71;100137.97;2023723;80;20194;-70
2021/03/07 02:57:01;;;;;;;2.36;2.06;;;;;;;-3.06;68.86;100136.88;2024416;80;20178;-69
2021/03/07 03:00:06;;;;;;;4.72;2.06;;;;;;;-3.08;68.86;100134.25;2023048;80;20214;-69
2021/03/07 03:03:10;;;;;;;3.20;2.41;;;;;;;-3.08;68.69;100133.38;2023725;77;20206;-69
2021/03/07 03:06:15;;;;;;;3.34;2.13;;;;;;;-3.10;68.78;100134.94;2024038;80;20240;-69
2021/03/07 03:09:17;;;;;;;2.81;2.24;;;;;;;-3.16;68.71;100126.94;2024218;80;20174;-69
2021/03/07 03:12:20;;;;;;;3.54;2.06;;;;;;;-3.18;69.11;100137.03;2023840;79;20200;-69
2021/03/07 03:15:22;;;;;;;2.70;1.79;;;;;;;-3.21;68.84;100136.84;2022839;78;25373;-69
2021/03/07 03:18:27;;;;;;;3.38;2.23;;;;;;;-3.33;69.05;100133.53;2023834;79;20174;-69
2021/03/07 03:21:29;;;;;;;3.03;2.46;;;;;;;-3.41;69.29;100138.13;2027782;79;20241;-69
2021/03/07 03:24:34;;;;;;;2.22;1.81;;;;;;;-3.40;69.38;100141.56;2024050;79;20807;-70
2021/03/07 03:27:36;;;;;;;2.72;2.17;;;;;;;-3.39;69.99;100143.31;2023975;79;20574;-70
2021/03/07 03:30:38;;;;;;;3.54;2.19;;;;;;;-3.46;70.01;100134.41;2024713;78;20162;-70
2021/03/07 03:33:39;;;;;;;2.78;2.38;;;;;;;-3.49;69.67;100136.75;2024933;79;20248;-69
2021/03/07 03:36:42;;;;;;;3.52;2.02;;;;;;;-3.51;69.37;100129.84;2024389;79;20170;-69
2021/03/07 03:39:47;;;;;;;3.86;2.56;;;;;;;-3.65;69.23;100132.38;2024787;79;20215;-69
2021/03/07 03:43:00;;;;;;;5.29;1.99;;;;;;;-3.68;69.69;100132.19;2025443;79;20224;-69
2021/03/07 03:46:05;;;;;;;3.53;2.09;;;;;;;-3.81;69.99;100123.69;2023849;77;20212;-70
2021/03/07 03:49:13;;;;;;;3.16;2.16;;;;;;;-3.82;70.44;100124.47;2024464;79;20188;-69
2021/03/07 03:52:18;;;;;;;3.34;2.01;;;;;;;-3.84;70.51;100131.09;2025122;79;20295;-70
2021/03/07 03:55:23;;;;;;;5.13;2.04;;;;;;;-3.85;70.10;100124.28;2024393;79;20191;-70
2021/03/07 03:58:28;;;;;;;3.03;2.04;;;;;;;-3.90;70.17;100123.13;2024247;79;20642;-70
2021/03/07 04:01:33;;;;;;;2.49;2.19;;;;;;;-3.90;70.32;100128.19;2023706;77;21304;-70
2021/03/07 04:04:35;;;;;;;3.69;2.32;;;;;;;-3.92;70.39;100123.03;2025232;79;20166;-70
2021/03/07 04:07:39;;;;;;;3.28;2.06;;;;;;;-3.93;70.36;100131.41;2024048;79;20174;-70
2021/03/07 04:10:42;;;;;;;4.47;2.34;;;;;;;-3.91;70.20;100128.97;2024850;79;20657;-70
2021/03/07 04:13:44;;;;;;;4.38;2.87;;;;;;;-3.92;70.71;100123.03;2024095;79;20178;-70
2021/03/07 04:16:48;;;;;;;3.20;2.37;;;;;;;-3.92;70.75;100124.69;2025038;77;22835;-70
2021/03/07 04:19:54;;;;;;;4.10;2.46;;;;;;;-3.95;70.59;100122.78;2026835;79;20194;-70
2021/03/07 04:22:56;;;;;;;3.11;2.08;;;;;;;-3.94;71.05;100128.78;2027512;79;20188;-70
2021/03/07 04:25:58;;;;;;;4.66;3.13;;;;;;;-4.00;71.14;100126.69;2026526;79;20787;-70
2021/03/07 04:29:00;;;;;;;2.67;2.47;;;;;;;-4.02;70.95;100124.06;2026864;79;20170;-70
2021/03/07 04:32:05;;;;;;;2.54;2.29;;;;;;;-4.04;70.97;100134.91;2026051;77;20351;-70
2021/03/07 04:35:07;;;;;;;3.64;2.70;;;;;;;-4.10;70.64;100130.31;2026643;79;20199;-70
2021/03/07 04:38:10;;;;;;;4.01;2.88;;;;;;;-4.14;70.66;100127.47;2026448;79;20207;-70
2021/03/07 04:41:12;;;;;;;2.58;2.32;;;;;;;-4.16;71.08;100134.09;2026850;79;20274;-70
2021/03/07 04:44:13;;;;;;;3.42;2.40;;;;;;;-4.18;70.98;100133.13;2026050;79;20654;-70
2021/03/07 04:47:15;;;;;;;4.09;2.79;;;;;;;-4.21;70.93;100131.25;2022460;77;20401;-70
2021/03/07 04:50:17;;;;;;;2.81;2.17;;;;;;;-4.18;71.25;100135.66;2021161;80;20668;-70
2021/03/07 04:53:19;;;;;;;3.67;2.54;;;;;;;-4.22;71.35;100132.03;2021535;80;20714;-70
2021/03/07 04:56:22;;;;;;;5.06;2.76;;;;;;;-4.21;71.80;100135.47;2021082;80;20188;-70
2021/03/07 04:59:23;;;;;;;2.27;2.06;;;;;;;-4.29;71.97;100128.25;2022176;80;20696;-70
2021/03/07 05:02:25;;;;;;;2.84;2.42;;;;;;;-4.32;72.04;100134.72;2025049;77;22301;-70
2021/03/07 05:05:27;;;;;;;3.99;2.52;;;;;;;-4.34;72.05;100133.75;2027826;79;20190;-70
2021/03/07 05:08:30;;;;;;;4.24;2.59;;;;;;;-4.37;71.97;100126.84;2027030;79;20287;-70
2021/03/07 05:11:32;;;;;;;2.49;2.03;;;;;;;-4.39;71.64;100130.06;2026456;79;20632;-70
2021/03/07 05:14:33;;;;;;;3.39;2.67;;;;;;;-4.41;72.12;100127.41;2026108;79;20712;-70
2021/03/07 05:17:36;;;;;;;3.02;2.26;;;;;;;-4.46;71.79;100125.38;2025696;78;20557;-70
2021/03/07 05:20:38;;;;;;;3.32;2.42;;;;;;;-4.51;72.12;100122.50;2027017;79;20560;-70
2021/03/07 05:23:39;;;;;;;8.03;2.66;;;;;;;-4.60;72.23;100119.38;2027003;79;20198;-70
2021/03/07 05:26:41;;;;;;;4.27;2.28;;;;;;;-4.63;72.70;100124.25;2026966;79;20576;-70
2021/03/07 05:29:43;;;;;;;3.63;2.69;;;;;;;-4.70;73.09;100117.88;2030500;79;20909;-69
2021/03/07 05:32:45;;;;;;;2.63;2.33;;;;;;;-4.74;73.10;100108.31;2020911;77;20489;-70
2021/03/07 05:35:48;;;;;;;5.16;2.73;;;;;;;-4.78;72.66;100108.00;2026308;79;20178;-70
2021/03/07 05:38:50;;;;;;;3.30;2.63;;;;;;;-4.81;72.48;100113.75;2026287;79;20299;-69
2021/03/07 05:41:53;;;;;;;4.16;2.31;;;;;;;-4.79;72.36;100107.13;2027033;79;20760;-70
2021/03/07 05:44:55;;;;;;;4.23;2.59;;;;;;;-4.75;73.01;100108.22;2026222;79;20931;-69
2021/03/07 05:47:57;;;;;;;4.06;2.78;;;;;;;-4.77;73.39;100115.72;2026252;77;20660;-70
2021/03/07 05:50:59;;;;;;;5.51;2.50;;;;;;;-4.77;73.48;100120.78;2026238;79;20214;-70
2021/03/07 05:54:02;;;;;;;2.89;2.18;;;;;;;-4.84;73.02;100110.13;2027383;79;20215;-70
2021/03/07 05:57:05;;;;;;;4.87;2.19;;;;;;;-4.82;73.25;100119.59;2026247;79;20196;-70
2021/03/07 06:00:08;;;;;;;3.53;2.51;;;;;;;-4.82;73.36;100116.19;2025912;79;20239;-69
2021/03/07 06:03:09;;;;;;;3.12;2.59;;;;;;;-4.82;73.32;100118.72;2025375;77;21693;-70
2021/03/07 06:06:11;;;;;;;3.98;2.80;;;;;;;-4.79;73.50;100114.72;2026629;79;20188;-70
2021/03/07 06:09:27;;;;;;;4.86;2.26;;;;;;;-4.80;73.48;100114.63;2026328;79;20190;-70
2021/03/07 06:12:28;;;;;;;2.97;2.67;;;;;;;-4.82;73.38;100113.66;2026284;80;20196;-70
2021/03/07 06:15:31;;;;;;;3.66;2.49;;;;;;;-4.84;73.30;100120.28;2025108;77;23587;-71
2021/03/07 06:18:41;;;;;;;3.62;2.33;;;;;;;-4.84;73.20;100111.00;2026762;80;20194;-71
2021/03/07 06:21:43;;;;;;;2.74;2.09;;;;;;;-4.82;73.41;100111.13;2026442;80;20184;-71
2021/03/07 06:24:45;;;;;;;2.94;2.18;;;;;;;-4.82;73.46;100116.19;2025946;79;20788;-71
2021/03/07 06:27:47;;;;;;;3.27;2.33;;;;;;;-4.82;73.55;100112.00;2026219;80;20181;-70
2021/03/07 06:30:50;;;;;;;3.19;2.30;;;;;;;-4.81;73.40;100107.81;2025069;77;22874;-69
2021/03/07 06:33:56;;;;;;;4.67;2.71;;;;;;;-4.76;73.54;100108.97;2024045;79;20222;-70
2021/03/07 06:37:03;;;;;;;3.62;2.21;;;;;;;-4.73;73.53;100101.59;2023756;80;20188;-70
2021/03/07 06:40:23;;;;;;;3.54;2.14;;;;;;;-4.70;73.25;100105.19;2023883;79;20190;-70
2021/03/07 06:43:26;;;;;;;5.13;2.30;;;;;;;-4.63;73.41;100109.91;2023684;79;20174;-63
2021/03/07 06:46:45;;;;;;;2.71;1.91;;;;;;;-4.56;73.48;100107.00;2023147;77;22363;-64
2021/03/07 06:49:47;;;;;;;3.34;2.47;;;;;;;-4.49;73.28;100102.31;2024887;79;20235;-64
2021/03/07 06:52:57;;;;;;;3.70;2.22;;;;;;;-4.44;72.93;100104.41;2024113;79;20198;-64
2021/03/07 06:55:58;;;;;;;4.30;2.52;;;;;;;-4.36;72.86;100102.38;2024222;79;20192;-65
2021/03/07 06:59:14;;;;;;;3.62;2.62;;;;;;;-4.29;72.97;100095.28;2024085;80;20598;-68
2021/03/07 07:02:16;;;;;;;4.09;2.67;;;;;;;-4.16;73.14;100091.00;2024070;78;20812;-66
2021/03/07 07:05:38;;;;;;;4.86;2.38;;;;;;;-4.02;73.07;100091.09;2024678;79;20202;-65
2021/03/07 07:08:45;;;;;;;3.53;2.61;;;;;;;-3.85;73.44;100086.22;2025683;79;20190;-75
2021/03/07 07:11:47;;;;;;;3.12;2.56;;;;;;;-3.76;73.83;100092.78;2024018;79;20178;-70
2021/03/07 07:14:50;;;;;;;4.13;2.66;;;;;;;-3.57;73.98;100093.94;2025472;79;20914;-71
2021/03/07 07:17:52;;;;;;;3.27;2.39;;;;;;;-3.42;73.97;100093.19;2024050;77;21823;-76
2021/03/07 07:20:55;;;;;;;3.87;2.27;;;;;;;-3.21;73.96;100091.13;2024724;79;20460;-73
2021/03/07 07:23:57;;;;;;;3.27;2.32;;;;;;;-2.90;73.82;100093.84;2025083;79;20872;-78
2021/03/07 07:27:00;;;;;;;7.67;2.67;;;;;;;-2.44;72.60;100089.81;2025671;79;20158;-78
2021/03/07 07:30:05;;;;;;;3.42;2.74;;;;;;;-2.03;71.29;100095.50;2027385;79;20502;-77
2021/03/07 07:33:12;;;;;;;2.71;2.32;;;;;;;-1.67;70.28;100095.00;2024062;77;20174;-78
2021/03/07 07:36:22;;;;;;;3.90;2.70;;;;;;;-1.36;68.52;100089.06;2024442;79;20223;-79
2021/03/07 07:39:31;;;;;;;6.15;2.71;;;;;;;-1.11;67.12;100091.22;2025575;79;20319;-77
2021/03/07 07:42:35;;;;;;;3.83;2.00;;;;;;;-0.78;66.28;100093.00;2024137;79;20389;-77
2021/03/07 07:45:37;;;;;;;3.33;2.44;;;;;;;-0.43;65.04;100084.59;2023617;77;21123;-73
2021/03/07 07:48:48;;;;;;;4.20;2.83;;;;;;;-0.08;63.75;100088.00;2024580;79;20320;-74
2021/03/07 07:51:49;;;;;;;3.38;2.42;;;;;;;0.31;62.44;100096.72;2024910;79;20342;-75
2021/03/07 07:54:58;;;;;;;5.38;2.83;;;;;;;0.62;61.20;100093.06;2025745;79;20416;-74
2021/03/07 07:58:00;;;;;;;4.20;3.00;;;;;;;0.90;60.25;100096.06;2023825;79;20353;-74
2021/03/07 08:01:06;;;;;;;4.69;2.97;;;;;;;1.17;58.88;100096.41;2024677;77;20641;-74
2021/03/07 08:04:28;;;;;;;3.90;2.71;;;;;;;1.56;58.55;100097.25;2024716;79;21556;-77
2021/03/07 08:07:56;;;;;;;3.41;2.63;;;;;;;2.01;57.87;100093.19;2024920;79;20303;-77
2021/03/07 08:10:58;;;;;;;3.54;2.81;;;;;;;2.35;56.31;100090.31;2026351;79;20363;-75
2021/03/07 08:14:01;;;;;;;5.20;2.50;;;;;;;2.68;55.61;100087.28;2024377;79;20899;-76
2021/03/07 08:17:02;;;;;;;3.04;2.66;;;;;;;3.02;54.62;100079.16;2024188;77;46718;-77
2021/03/07 08:20:04;;;;;;;5.55;3.06;;;;;;;3.29;53.89;100076.72;2024472;79;20457;-77
2021/03/07 08:23:14;;;;;;;3.67;3.06;;;;;;;3.66;52.81;100065.16;2024790;79;20737;-74
2021/03/07 08:26:16;;;;;;;7.63;2.78;;;;;;;4.04;52.16;100067.31;2025044;79;20376;-74
2021/03/07 08:29:44;;;;;;;2.79;2.14;;;;;;;4.37;50.47;100061.50;2023704;79;20322;-73
2021/03/07 08:32:47;;;;;;;3.01;2.42;;;;;;;4.68;49.41;100066.75;2021542;77;24523;-73
2021/03/07 08:36:12;;;;;;;5.47;2.75;;;;;;;4.88;48.54;100064.75;2023640;79;20871;-72
2021/03/07 08:39:14;;;;;;;5.26;2.74;;;;;;;5.20;47.52;100057.94;2024506;79;21145;-73
2021/03/07 08:42:27;;;;;;;3.17;2.38;;;;;;;5.36;46.21;100059.22;2024399;79;20343;-74
2021/03/07 08:45:29;;;;;;;2.72;2.39;;;;;;;5.51;45.03;100051.91;2025124;78;27488;-74
2021/03/07 08:48:33;;;;;;;4.69;2.47;;;;;;;5.62;43.77;100049.63;2018884;80;20307;-74
2021/03/07 08:51:37;;;;;;;3.61;2.46;;;;;;;5.88;44.30;100048.56;2018349;80;20405;-73
2021/03/07 08:54:39;;;;;;;3.20;2.38;;;;;;;6.11;44.27;100053.47;2018890;79;20328;-74
2021/03/07 08:57:49;;;;;;;2.54;1.98;;;;;;;6.31;43.14;100047.94;2018918;80;20335;-74
2021/03/07 09:00:53;;;;;;;2.17;2.00;;;;;;;6.37;42.59;100052.38;2019695;77;68575;-75
2021/03/07 09:04:01;;;;;;;3.09;2.26;;;;;;;6.57;42.00;100051.09;2023875;79;20356;-75
2021/03/07 09:07:03;;;;;;;3.63;2.58;;;;;;;6.75;41.18;100037.72;2024751;79;20824;-75
2021/03/07 09:10:05;;;;;;;2.56;1.98;;;;;;;6.88;40.87;100044.91;2024419;79;21100;-74
2021/03/07 09:13:23;;;;;;;2.26;1.85;;;;;;;7.09;40.47;100041.88;2024301;79;20400;-74
2021/03/07 09:16:37;;;;;;;2.58;2.08;;;;;;;7.30;39.72;100033.69;2022998;77;20323;-74
2021/03/07 09:19:40;;;;;;;2.83;2.10;;;;;;;7.44;39.59;100033.94;2024313;79;20827;-75
2021/03/07 09:22:44;;;;;;;2.51;2.14;;;;;;;7.55;39.09;100035.03;2025036;79;20467;-75
2021/03/07 09:25:50;;;;;;;4.78;2.91;;;;;;;7.59;38.60;100021.31;2023760;79;20386;-75
2021/03/07 09:28:56;;;;;;;5.13;2.99;;;;;;;7.70;38.21;100030.09;2024516;79;20186;-75
2021/03/07 09:31:59;;;;;;;8.13;3.06;;;;;;;7.97;38.33;100027.13;2019194;77;44884;-74
2021/03/07 09:35:16;;;;;;;6.69;3.13;;;;;;;8.10;37.71;100026.47;2022466;79;20178;-75
2021/03/07 09:38:18;;;;;;;3.63;2.75;;;;;;;8.08;38.30;100019.53;2020390;79;20331;-75
2021/03/07 09:41:46;;;;;;;4.89;2.44;;;;;;;8.26;37.95;100013.75;2025305;79;20560;-75
2021/03/07 09:44:49;;;;;;;4.76;2.66;;;;;;;8.42;37.56;100015.75;2023224;79;20190;-76
2021/03/07 09:47:53;;;;;;;7.53;2.75;;;;;;;8.52;37.38;100020.22;2024056;77;22676;-76
2021/03/07 09:50:56;;;;;;;4.99;2.83;;;;;;;8.61;37.08;100007.38;2024234;79;20195;-77
2021/03/07 09:53:58;;;;;;;8.40;2.79;;;;;;;8.80;37.26;100003.34;2022470;79;20183;-77
2021/03/07 09:57:00;;;;;;;6.28;2.58;;;;;;;8.97;36.38;100003.53;2023668;79;20581;-77
2021/03/07 10:00:03;;;;;;;5.00;2.85;;;;;;;9.12;36.05;99998.53;2023588;79;20186;-77
2021/03/07 10:03:23;;;;;;;5.36;2.99;;;;;;;9.17;35.60;100001.19;2023834;78;21874;-77
2021/03/07 10:06:29;;;;;;;2.83;2.54;;;;;;;9.21;35.77;99990.88;2023703;79;20235;-76
2021/03/07 10:09:31;;;;;;;3.35;2.97;;;;;;;9.35;35.27;99994.47;2026455;79;20170;-77
2021/03/07 10:12:57;;;;;;;2.95;2.56;;;;;;;9.37;35.39;99985.00;2024927;79;20191;-76
2021/03/07 10:15:59;;;;;;;4.43;2.50;;;;;;;9.61;35.40;99979.16;2025449;77;30295;-76
2021/03/07 10:19:11;;;;;;;;;;;;;;;9.90;35.95;99978.53;2024613;80;20677;-76
2021/03/07 10:22:13;;;;;;;2.74;2.09;;;;;;;9.91;34.19;99973.38;2024440;79;20115;-76
2021/03/07 10:25:43;;;;;;;4.72;3.09;;;;;;;10.01;34.72;99976.88;2024763;79;21291;-76
2021/03/07 10:28:59;;;;;;;2.66;2.34;;;;;;;10.02;33.22;99976.00;2025341;79;20901;-76
2021/03/07 10:32:11;;;;;;;3.95;2.74;;;;;;;10.04;33.77;99969.09;2023331;77;28443;-75
2021/03/07 10:35:13;;;;;;;6.49;2.95;;;;;;;10.18;33.87;99971.81;2023639;79;20405;-76
2021/03/07 10:38:18;;;;;;;2.80;2.29;;;;;;;10.02;33.03;99964.78;2024856;79;20707;-76
2021/03/07 10:41:24;;;;;;;5.15;2.76;;;;;;;10.07;33.72;99960.50;2024933;79;20166;-77
2021/03/07 10:44:26;;;;;;;4.00;2.60;;;;;;;10.11;33.09;99951.88;2028574;79;20182;-76
2021/03/07 10:47:28;;;;;;;2.89;2.63;;;;;;;10.26;32.64;99949.41;2019971;77;20221;-76
2021/03/07 10:50:30;;;;;;;3.97;2.38;;;;;;;10.29;33.15;99949.44;2020365;79;20189;-76
2021/03/07 10:53:32;;;;;;;4.26;2.83;;;;;;;10.26;32.71;99950.28;2018559;79;20387;-76
2021/03/07 10:56:37;;;;;;;3.14;2.67;;;;;;;10.28;32.54;99939.91;2019391;80;20212;-76
2021/03/07 10:59:39;;;;;;;3.22;2.92;;;;;;;10.30;33.21;99940.78;2019927;80;20171;-76
2021/03/07 11:02:46;;;;;;;3.19;2.64;;;;;;;10.42;32.18;99940.84;2023832;77;22861;-76
2021/03/07 11:05:47;;;;;;;3.10;2.59;;;;;;;10.72;33.24;99939.22;2024904;79;20308;-75
2021/03/07 11:08:51;;;;;;;3.53;2.56;;;;;;;11.02;32.45;99935.88;2025646;79;20304;-75
2021/03/07 11:11:53;;;;;;;4.53;2.81;;;;;;;11.04;30.89;99936.75;2024922;79;21498;-76
2021/03/07 11:14:54;;;;;;;4.63;2.65;;;;;;;10.84;30.63;99926.28;2025705;79;20712;-75
2021/03/07 11:17:56;;;;;;;4.20;2.63;;;;;;;10.79;30.15;99928.03;2024188;77;21505;-75
2021/03/07 11:20:58;;;;;;;4.24;2.85;;;;;;;10.71;30.94;99920.19;2024790;79;20178;-75
2021/03/07 11:23:59;;;;;;;2.97;2.67;;;;;;;10.85;31.82;99915.91;2024821;79;20174;-74
2021/03/07 11:27:01;;;;;;;5.29;2.92;;;;;;;11.25;32.23;99915.13;2025220;79;20174;-75
2021/03/07 11:30:04;;;;;;;4.40;2.86;;;;;;;11.61;32.18;99906.47;2024352;79;20543;-74
2021/03/07 11:33:06;;;;;;;2.89;2.54;;;;;;;11.65;30.86;99906.47;2020249;77;20724;-75
2021/03/07 11:36:08;;;;;;;3.45;2.74;;;;;;;12.02;31.38;99903.84;2024930;79;20178;-75
2021/03/07 11:39:10;;;;;;;3.10;2.80;;;;;;;11.86;29.99;99900.44;2024730;79;20721;-74
2021/03/07 11:42:11;;;;;;;5.88;2.99;;;;;;;12.02;30.35;99894.28;2025056;79;20204;-75
2021/03/07 11:45:14;;;;;;;2.86;2.49;;;;;;;12.10;29.52;99902.09;2024032;77;25836;-75
2021/03/07 11:48:16;;;;;;;2.79;2.59;;;;;;;11.78;28.63;99892.59;2024706;79;20192;-77
2021/03/07 11:51:18;;;;;;;4.61;3.11;;;;;;;12.11;29.97;99885.63;2025048;79;20280;-75
2021/03/07 11:54:19;;;;;;;3.55;3.19;;;;;;;12.35;28.42;99882.06;2025086;79;20226;-75
2021/03/07 11:57:21;;;;;;;3.03;2.50;;;;;;;12.02;26.86;99880.41;2025308;79;20216;-75
2021/03/07 12:00:23;;;;;;;2.67;2.47;;;;;;;11.68;28.02;99869.19;2024169;79;20215;-75
2021/03/07 12:03:25;;;;;;;2.81;2.47;;;;;;;11.91;29.19;99872.66;2024586;79;20389;-75
2021/03/07 12:06:27;;;;;;;4.16;2.71;;;;;;;12.09;28.29;99858.72;2024752;79;20163;-75
2021/03/07 12:09:29;;;;;;;3.39;2.75;;;;;;;12.16;27.44;99854.34;2025475;79;20194;-75
2021/03/07 12:12:31;;;;;;;4.18;2.66;;;;;;;12.35;27.37;99851.66;2025187;79;20163;-82
2021/03/07 12:15:32;;;;;;;3.05;2.29;;;;;;;12.46;26.94;99849.03;2024301;77;22856;-76
2021/03/07 12:18:38;;;;;;;3.09;2.50;;;;;;;12.52;27.83;99837.72;2025256;79;20207;-75
2021/03/07 12:21:40;;;;;;;3.38;2.66;;;;;;;12.66;26.77;99831.56;2025042;79;20196;-75
2021/03/07 12:24:42;;;;;;;5.63;3.22;;;;;;;12.53;26.82;99824.66;2024733;79;20199;-76
2021/03/07 12:27:44;;;;;;;2.90;2.70;;;;;;;12.34;27.23;99820.44;2024463;79;20260;-72
2021/03/07 12:30:45;;;;;;;2.42;2.21;;;;;;;12.46;27.34;99816.91;2024333;77;21502;-72
2021/03/07 12:33:47;;;;;;;3.50;3.20;;;;;;;12.59;27.36;99809.03;2026926;79;20180;-73
2021/03/07 12:36:49;;;;;;;3.63;2.38;;;;;;;12.53;26.30;99801.22;2022395;79;20170;-72
2021/03/07 12:39:50;;;;;;;3.01;2.71;;;;;;;12.35;26.27;99799.59;2024358;79;20198;-72
2021/03/07 12:42:52;;;;;;;4.22;2.78;;;;;;;12.58;26.25;99793.41;2023870;79;20853;-72
2021/03/07 12:45:54;;;;;;;3.01;2.59;;;;;;;12.57;26.36;99789.94;2022377;77;20214;-72
2021/03/07 12:48:56;;;;;;;2.90;2.59;;;;;;;12.58;26.92;99785.59;2019779;80;20194;-72
2021/03/07 12:51:58;;;;;;;3.09;2.78;;;;;;;12.69;26.53;99774.22;2019405;80;20204;-73
2021/03/07 12:55:00;;;;;;;4.78;3.39;;;;;;;12.80;28.33;99774.16;2018470;80;20229;-72
2021/03/07 12:58:02;;;;;;;3.94;3.42;;;;;;;12.55;26.26;99776.03;2020050;80;20367;-77
2021/03/07 13:01:04;;;;;;;3.45;2.66;;;;;;;12.60;26.83;99771.69;2023012;77;22792;-77
2021/03/07 13:04:06;;;;;;;3.33;3.03;;;;;;;12.52;26.97;99772.59;2024630;79;20859;-78
2021/03/07 13:07:08;;;;;;;3.20;2.90;;;;;;;12.60;27.15;99769.06;2025060;79;20184;-78
2021/03/07 13:10:10;;;;;;;2.75;2.55;;;;;;;12.59;25.91;99759.53;2024618;79;20179;-77
2021/03/07 13:13:12;;;;;;;3.39;2.84;;;;;;;12.61;27.04;99751.69;2024570;79;20304;-77
2021/03/07 13:16:14;;;;;;;2.70;2.41;;;;;;;12.91;26.69;99735.81;2022010;77;20844;-77
2021/03/07 13:19:16;;;;;;;2.51;2.38;;;;;;;12.89;26.23;99741.91;2020195;80;20163;-77
2021/03/07 13:22:18;;;;;;;2.75;2.51;;;;;;;12.83;26.23;99736.78;2019357;80;20179;-77
2021/03/07 13:25:19;;;;;;;3.11;2.71;;;;;;;12.86;27.00;99735.00;2019358;80;20205;-78
2021/03/07 13:28:21;;;;;;;2.96;2.67;;;;;;;12.92;26.01;99726.25;2019768;80;20333;-78
2021/03/07 13:31:23;;;;;;;3.44;3.05;;;;;;;12.88;25.93;99725.41;2018846;77;33496;-78
2021/03/07 13:34:24;;;;;;;3.00;2.80;;;;;;;12.84;26.53;99725.47;2022425;79;20171;-78
2021/03/07 13:37:26;;;;;;;2.91;2.71;;;;;;;12.49;26.29;99728.34;2024929;79;20192;-78
2021/03/07 13:40:43;;;;;;;2.65;2.45;;;;;;;12.38;26.11;99725.78;2025249;79;20179;-79
2021/03/07 13:43:45;;;;;;;3.10;2.46;;;;;;;12.57;28.01;99722.22;2025144;79;20196;-79
2021/03/07 13:46:49;;;;;;;2.78;2.58;;;;;;;12.62;27.56;99716.97;2024760;77;20508;-81
2021/03/07 13:49:50;;;;;;;2.95;2.75;;;;;;;12.57;27.19;99718.75;2025516;79;20174;-77
2021/03/07 13:52:53;;;;;;;2.80;2.21;;;;;;;12.63;25.78;99709.13;2025711;79;20186;-72
2021/03/07 13:55:55;;;;;;;2.72;2.53;;;;;;;12.59;26.61;99714.38;2025010;79;20247;-72
2021/03/07 13:58:57;;;;;;;2.49;2.21;;;;;;;12.58;26.79;99705.72;2025460;79;20698;-75
2021/03/07 14:01:59;;;;;;;2.81;2.51;;;;;;;12.41;26.75;99710.16;2023780;79;20683;-75
2021/03/07 14:05:01;;;;;;;2.14;1.99;;;;;;;12.40;26.74;99704.09;2025072;79;20266;-75
2021/03/07 14:08:03;;;;;;;2.38;2.06;;;;;;;12.38;26.91;99699.75;2025230;79;20188;-75
2021/03/07 14:11:08;;;;;;;2.95;2.36;;;;;;;12.21;26.10;99696.38;2025831;79;20443;-74
2021/03/07 14:14:10;;;;;;;2.83;2.09;;;;;;;11.92;26.10;99702.63;2024968;79;20190;-75
2021/03/07 14:17:12;;;;;;;2.69;2.47;;;;;;;11.91;26.10;99693.09;2024615;77;20178;-75
2021/03/07 14:20:16;;;;;;;2.31;2.14;;;;;;;12.02;25.66;99693.03;2025741;80;20751;-75